Aprelevka, Russia
Current Conditions -  °F | °C
As of 3:00 AM on Wednesday 22 Oct 2014 (Local Time) from UUWW Reporting Station
Light Snow Light Snow  
Wind Chill:   Ceiling: 1800
Heat Index: 23°   Visibility: 6mi
Dew Point: 18°   Wind: 18mph
Humidity: 80%   Direction: 340°NNW
Pressure: 29.68"   Gusts: NA
Location:  55.54°N, 37.07°E
Report Text: UUWW 220000Z 34008MPS 9999 -SN OVC018 M05/M08 Q1005 01190040NOSIG
Loading
Personal Weather Stations






























Interactive Weather Map
Tropical Storm Tracking
New forecast layout! Learn more

10-Day Weather Forecast

Advertisements
Track Severe Weather on mobile